createdAt,value
2019-04-23T00:01:31.635Z,51.50
2019-04-23T00:04:26.505Z,51.70
2019-04-23T00:07:44.478Z,52.40
2019-04-23T00:10:53.969Z,52.20
2019-04-23T00:16:44.015Z,53.60
2019-04-23T00:19:48.571Z,53.30
2019-04-23T00:22:51.832Z,53.10
2019-04-23T00:26:03.935Z,53.70
2019-04-23T00:29:05.351Z,54.10
2019-04-23T00:31:59.561Z,54.30
2019-04-23T00:38:16.532Z,54.20
2019-04-23T00:41:11.206Z,54.20
2019-04-23T00:44:32.444Z,54.30
2019-04-23T00:47:20.843Z,54.60
2019-04-23T00:50:38.541Z,54.70
2019-04-23T00:59:26.916Z,55.70
2019-04-23T01:02:33.290Z,56.00
2019-04-23T01:05:31.000Z,56.10
2019-04-23T01:08:36.862Z,56.50
2019-04-23T01:11:31.742Z,56.40
2019-04-23T01:14:38.439Z,56.50
2019-04-23T01:17:49.303Z,56.90
2019-04-23T01:20:50.235Z,57.40
2019-04-23T01:30:38.764Z,57.30
2019-04-23T01:33:46.713Z,57.90
2019-04-23T01:36:35.581Z,57.80
2019-04-23T01:39:44.130Z,57.60
2019-04-23T01:42:58.617Z,57.90
2019-04-23T01:45:47.947Z,58.70
2019-04-23T01:48:56.760Z,58.70
2019-04-23T01:51:54.924Z,58.30
2019-04-23T01:58:41.919Z,60.30
2019-04-23T02:01:32.350Z,60.00
2019-04-23T02:04:34.870Z,60.20
2019-04-23T02:07:43.859Z,60.20
2019-04-23T02:10:44.439Z,61.40
2019-04-23T02:13:43.500Z,61.00
2019-04-23T02:16:42.229Z,61.30
2019-04-23T02:19:54.285Z,61.70
2019-04-23T02:23:09.839Z,61.90
2019-04-23T02:25:56.383Z,62.30
2019-04-23T02:38:20.304Z,64.60
2019-04-23T02:41:20.395Z,64.70
2019-04-23T02:47:23.113Z,64.70
2019-04-23T02:50:36.742Z,65.40
2019-04-23T03:00:08.020Z,67.60
2019-04-23T03:03:01.645Z,68.30
2019-04-23T03:05:57.750Z,69.20
2019-04-23T03:08:52.958Z,69.80
2019-04-23T03:12:09.130Z,70.70
2019-04-23T03:15:15.174Z,71.60
2019-04-23T03:21:42.655Z,72.00
2019-04-23T03:25:03.673Z,72.20
2019-04-23T03:27:55.882Z,73.20
2019-04-23T03:32:34.174Z,74.10
2019-04-23T03:37:23.102Z,76.20
2019-04-23T03:46:17.811Z,79.90
2019-04-23T03:49:15.295Z,80.10
2019-04-23T03:52:20.759Z,81.30
2019-04-23T03:55:18.690Z,82.30
2019-04-23T03:58:28.293Z,84.50
2019-04-23T04:01:34.773Z,86.10
2019-04-23T04:10:42.088Z,90.10
2019-04-23T04:13:53.199Z,92.00
2019-04-23T04:16:49.212Z,93.60
2019-04-23T04:19:40.178Z,96.10
2019-04-23T04:22:50.182Z,97.60
2019-04-23T04:29:00.690Z,99.00
2019-04-23T04:32:00.754Z,99.20
2019-04-23T04:35:12.556Z,99.80
2019-04-23T04:38:04.190Z,99.90
2019-04-23T04:44:27.266Z,99.90
2019-04-23T04:50:02.298Z,99.90
2019-04-23T04:53:16.767Z,99.90
2019-04-23T04:56:16.030Z,99.90
2019-04-23T04:59:08.622Z,99.90
2019-04-23T05:02:25.915Z,99.90
2019-04-23T05:05:47.830Z,99.90
2019-04-23T05:08:21.674Z,99.90
2019-04-23T05:14:26.496Z,99.90
2019-04-23T05:20:53.388Z,99.90
2019-04-23T05:23:50.985Z,99.90
2019-04-23T05:26:37.532Z,99.90
2019-04-23T05:29:55.957Z,99.90
2019-04-23T05:32:57.953Z,99.90
2019-04-23T05:36:14.771Z,99.90
2019-04-23T05:39:12.035Z,99.90
2019-04-23T05:41:55.782Z,99.90
2019-04-23T05:48:13.210Z,99.90
2019-04-23T05:51:11.004Z,99.90
2019-04-23T05:57:10.338Z,99.90
2019-04-23T06:00:21.398Z,99.90
2019-04-23T06:03:16.268Z,99.90
2019-04-23T06:06:24.059Z,99.90
2019-04-23T06:09:22.119Z,99.90
2019-04-23T06:12:22.075Z,99.90
2019-04-23T06:15:29.817Z,99.90
2019-04-23T06:18:30.468Z,99.90
2019-04-23T06:21:33.894Z,99.90
2019-04-23T06:24:34.970Z,99.90
2019-04-23T06:30:55.784Z,99.90
2019-04-23T06:33:41.847Z,99.90
2019-04-23T06:36:46.680Z,99.90
2019-04-23T06:42:52.117Z,99.90
2019-04-23T06:45:49.238Z,99.90
2019-04-23T06:48:57.084Z,99.90
2019-04-23T06:55:06.419Z,99.90
2019-04-23T06:58:05.079Z,99.90
2019-04-23T07:01:04.909Z,99.90
2019-04-23T07:04:11.734Z,99.90
2019-04-23T07:07:42.609Z,99.90
2019-04-23T07:10:19.416Z,99.90
2019-04-23T07:13:21.480Z,99.90
2019-04-23T07:16:32.844Z,99.90
2019-04-23T07:22:29.096Z,99.90
2019-04-23T07:25:47.063Z,99.90
2019-04-23T07:28:37.305Z,99.90
2019-04-23T07:34:41.575Z,99.90
2019-04-23T07:37:47.797Z,99.90
2019-04-23T07:40:51.362Z,99.90
2019-04-23T07:50:39.409Z,99.90
2019-04-23T07:53:31.477Z,98.80
2019-04-23T07:56:35.996Z,99.90
2019-04-23T07:59:47.379Z,99.60
2019-04-23T08:02:43.757Z,99.90
2019-04-23T08:08:31.897Z,99.90
2019-04-23T08:11:39.776Z,99.90
2019-04-23T08:14:40.877Z,99.90
2019-04-23T08:17:34.599Z,99.90
2019-04-23T08:24:06.623Z,99.90
2019-04-23T08:27:22.432Z,99.90
2019-04-23T08:30:09.384Z,99.20
2019-04-23T08:33:19.483Z,98.90
2019-04-23T08:36:31.197Z,99.00
2019-04-23T08:39:28.672Z,96.40
2019-04-23T08:42:36.490Z,97.70
2019-04-23T08:45:46.291Z,97.90
2019-04-23T08:48:58.684Z,97.70
2019-04-23T08:52:00.850Z,94.40
2019-04-23T08:55:01.533Z,93.20
2019-04-23T08:57:56.172Z,93.10
2019-04-23T09:01:05.049Z,93.70
2019-04-23T09:04:09.016Z,92.30
2019-04-23T09:07:16.699Z,91.80
2019-04-23T09:10:19.708Z,93.80
2019-04-23T09:13:39.961Z,92.70
2019-04-23T09:16:31.318Z,92.20
2019-04-23T09:25:40.694Z,89.30
2019-04-23T09:28:41.430Z,85.20
2019-04-23T09:32:21.126Z,78.00
2019-04-23T09:35:06.276Z,80.00
2019-04-23T09:38:39.960Z,75.90
2019-04-23T09:41:39.040Z,70.00
2019-04-23T09:45:05.279Z,74.50
2019-04-23T09:48:06.750Z,74.30
2019-04-23T09:51:17.852Z,73.40
2019-04-23T09:54:18.585Z,68.00
2019-04-23T09:57:15.955Z,65.20
2019-04-23T10:00:34.708Z,64.00
2019-04-23T10:03:16.153Z,65.00
2019-04-23T10:06:09.661Z,64.80
2019-04-23T10:09:08.853Z,59.50
2019-04-23T10:12:09.281Z,58.10
2019-04-23T10:15:21.562Z,60.50
2019-04-23T10:18:16.079Z,59.90
2019-04-23T10:21:19.371Z,57.80
2019-04-23T10:24:21.101Z,59.40
2019-04-23T10:27:23.247Z,60.70
2019-04-23T10:30:24.489Z,57.60
2019-04-23T10:33:25.703Z,57.40
2019-04-23T10:36:28.279Z,58.90
2019-04-23T10:39:35.136Z,58.60
2019-04-23T10:42:35.618Z,60.00
2019-04-23T10:45:57.602Z,56.90
2019-04-23T10:49:42.798Z,55.30
2019-04-23T10:52:26.482Z,56.40
2019-04-23T10:55:34.996Z,55.00
2019-04-23T10:58:34.928Z,56.60
2019-04-23T11:01:41.377Z,53.90
2019-04-23T11:04:54.114Z,52.70
2019-04-23T11:07:33.956Z,53.10
2019-04-23T11:10:44.579Z,55.30
2019-04-23T11:16:57.646Z,52.20
2019-04-23T11:20:07.793Z,50.60
2019-04-23T11:25:36.722Z,50.30
2019-04-23T11:28:39.174Z,51.30
2019-04-23T11:32:13.678Z,46.60
2019-04-23T11:35:04.347Z,48.30
2019-04-23T11:40:54.232Z,49.40
2019-04-23T11:43:58.908Z,47.10
2019-04-23T11:50:14.175Z,45.20
2019-04-23T11:51:07.295Z,44.40
2019-04-23T11:53:02.646Z,45.40
2019-04-23T11:56:15.492Z,44.80
2019-04-23T11:59:19.070Z,45.20
2019-04-23T12:02:23.432Z,45.30
2019-04-23T12:08:38.487Z,43.60
2019-04-23T12:11:54.571Z,42.80
2019-04-23T12:20:49.145Z,42.10
2019-04-23T12:24:10.709Z,42.60
2019-04-23T12:30:01.311Z,45.00
2019-04-23T12:33:04.815Z,45.20
2019-04-23T12:36:28.302Z,43.80
2019-04-23T12:39:32.943Z,44.90
2019-04-23T12:42:50.189Z,40.70
2019-04-23T12:45:44.268Z,43.50
2019-04-23T12:48:53.304Z,43.90
2019-04-23T12:51:50.162Z,44.20
2019-04-23T12:54:59.020Z,45.20
2019-04-23T12:57:46.705Z,46.40
2019-04-23T13:03:29.794Z,42.60
2019-04-23T13:06:31.313Z,40.90
2019-04-23T13:09:45.767Z,42.50
2019-04-23T13:12:47.405Z,43.80
2019-04-23T13:15:40.264Z,44.00
2019-04-23T13:18:46.703Z,44.90
2019-04-23T13:21:57.134Z,45.10
2019-04-23T13:24:56.023Z,44.80
2019-04-23T13:28:01.902Z,44.30
2019-04-23T13:30:59.085Z,45.70
2019-04-23T13:33:58.066Z,46.80
2019-04-23T13:37:11.207Z,47.40
2019-04-23T13:40:09.207Z,47.80
2019-04-23T13:43:19.523Z,47.00
2019-04-23T13:49:26.084Z,46.80
2019-04-23T13:52:47.838Z,46.90
2019-04-23T13:55:24.868Z,47.50
2019-04-23T13:58:32.872Z,48.20
2019-04-23T14:01:32.349Z,49.00
2019-04-23T14:08:03.312Z,48.80
2019-04-23T14:11:02.282Z,48.20
2019-04-23T14:17:26.835Z,49.20
2019-04-23T14:20:15.271Z,49.40
2019-04-23T14:23:27.721Z,50.10
2019-04-23T14:26:15.935Z,50.20
2019-04-23T14:29:22.923Z,49.10
2019-04-23T14:32:20.865Z,48.60
2019-04-23T14:35:28.806Z,49.10
2019-04-23T14:38:30.248Z,49.50
2019-04-23T14:47:46.292Z,47.90
2019-04-23T14:50:48.784Z,48.50
2019-04-23T14:56:56.823Z,46.10
2019-04-23T14:59:53.418Z,45.80
2019-04-23T15:02:59.352Z,44.40
2019-04-23T15:06:12.075Z,44.40
2019-04-23T15:09:22.486Z,44.30
2019-04-23T15:12:09.675Z,42.00
2019-04-23T15:17:49.689Z,41.40
2019-04-23T15:21:39.682Z,40.90
2019-04-23T15:24:30.355Z,39.50
2019-04-23T15:30:14.308Z,35.60
2019-04-23T15:33:48.974Z,34.50
2019-04-23T15:39:31.252Z,35.30
2019-04-23T15:42:20.057Z,35.10
2019-04-23T15:45:21.067Z,34.70
2019-04-23T15:48:16.173Z,34.50
2019-04-23T15:51:51.099Z,34.60
2019-04-23T15:54:22.818Z,35.10
2019-04-23T15:57:32.475Z,34.40
2019-04-23T16:00:15.768Z,34.00
2019-04-23T16:02:57.643Z,34.60
2019-04-23T16:05:46.844Z,33.90
2019-04-23T16:09:16.343Z,34.30
2019-04-23T16:12:09.799Z,34.60
2019-04-23T16:15:19.706Z,35.30
2019-04-23T16:18:31.335Z,34.70
2019-04-23T16:21:41.688Z,35.30
2019-04-23T16:24:17.680Z,35.70
2019-04-23T16:27:36.627Z,35.80
2019-04-23T16:33:48.288Z,36.60
2019-04-23T16:36:47.409Z,36.10
2019-04-23T16:39:58.082Z,36.90
2019-04-23T16:42:56.452Z,37.40
2019-04-23T16:46:03.161Z,37.30
2019-04-23T16:49:09.680Z,36.80
2019-04-23T16:52:01.960Z,37.80
2019-04-23T16:55:07.062Z,38.40
2019-04-23T16:58:23.227Z,38.60
2019-04-23T17:07:13.236Z,39.40
2019-04-23T17:10:28.152Z,40.30
2019-04-23T17:13:27.549Z,41.40
2019-04-23T17:16:28.570Z,42.60
2019-04-23T17:19:27.943Z,42.90
2019-04-23T17:22:17.814Z,42.50
2019-04-23T17:34:34.866Z,42.70
2019-04-23T17:37:35.239Z,43.00
2019-04-23T17:43:53.801Z,43.70
2019-04-23T17:50:05.660Z,44.00
2019-04-23T17:53:05.008Z,44.70
2019-04-23T17:59:13.537Z,44.80
2019-04-23T18:08:22.908Z,46.40
2019-04-23T18:14:18.139Z,47.60
2019-04-23T18:17:30.819Z,47.80
2019-04-23T18:20:29.969Z,47.70
2019-04-23T18:30:14.817Z,51.40
2019-04-23T18:34:03.727Z,51.30
2019-04-23T18:36:38.609Z,51.80
2019-04-23T18:39:50.192Z,52.40
2019-04-23T18:42:43.815Z,52.90
2019-04-23T18:45:57.355Z,53.40
2019-04-23T18:48:51.920Z,53.40
2019-04-23T18:52:00.807Z,53.90
2019-04-23T18:54:53.911Z,53.30
2019-04-23T19:01:27.845Z,53.30
2019-04-23T19:04:33.282Z,53.50
2019-04-23T19:07:50.174Z,53.50
2019-04-23T19:10:48.269Z,53.90
2019-04-23T19:16:28.612Z,55.60
2019-04-23T19:22:38.140Z,56.40
2019-04-23T19:25:22.853Z,56.50
2019-04-23T19:28:15.645Z,56.60
2019-04-23T19:31:16.397Z,57.20
2019-04-23T19:34:02.942Z,57.30
2019-04-23T19:39:36.588Z,58.60
2019-04-23T19:42:26.642Z,58.80
2019-04-23T19:45:25.519Z,58.90
2019-04-23T19:48:19.306Z,59.20
2019-04-23T19:54:12.768Z,60.10
2019-04-23T19:56:47.147Z,59.90
2019-04-23T19:59:37.171Z,60.40
2019-04-23T20:02:15.160Z,60.60
2019-04-23T20:04:59.573Z,61.00
2019-04-23T20:10:42.678Z,61.30
2019-04-23T20:13:41.157Z,61.80
2019-04-23T20:16:31.369Z,62.30
2019-04-23T20:19:18.761Z,62.50
2019-04-23T20:22:07.474Z,62.80
2019-04-23T20:27:52.493Z,64.40
2019-04-23T20:34:10.590Z,65.70
2019-04-23T20:36:48.127Z,66.60
2019-04-23T20:39:39.702Z,66.60
2019-04-23T20:45:06.086Z,67.50
2019-04-23T20:47:56.231Z,68.60
2019-04-23T20:50:47.093Z,69.40
2019-04-23T20:53:40.392Z,70.30
2019-04-23T20:56:34.478Z,70.50
2019-04-23T20:59:17.491Z,71.90
2019-04-23T21:02:27.716Z,72.90
2019-04-23T21:05:09.984Z,74.00
2019-04-23T21:08:00.876Z,75.20
2019-04-23T21:10:44.954Z,76.90
2019-04-23T21:13:55.022Z,78.20
2019-04-23T21:16:34.349Z,79.60
2019-04-23T21:19:24.749Z,80.40
2019-04-23T21:22:09.929Z,80.70
2019-04-23T21:24:54.670Z,81.30
2019-04-23T21:31:00.888Z,83.00
2019-04-23T21:33:49.894Z,84.00
2019-04-23T21:36:43.114Z,84.80
2019-04-23T21:42:25.395Z,86.70
2019-04-23T21:45:04.596Z,86.70
2019-04-23T21:50:49.028Z,87.50
2019-04-23T21:53:40.600Z,87.70
2019-04-23T21:56:30.256Z,88.00
2019-04-23T21:59:07.401Z,87.70
2019-04-23T22:02:04.039Z,87.20
2019-04-23T22:05:04.222Z,86.90
2019-04-23T22:07:51.520Z,85.80
2019-04-23T22:10:32.042Z,84.70
2019-04-23T22:13:29.225Z,83.30
2019-04-23T22:16:14.712Z,81.70
2019-04-23T22:24:46.547Z,81.00
2019-04-23T22:27:24.302Z,81.80
2019-04-23T22:30:21.473Z,83.30
2019-04-23T22:33:09.540Z,83.70
2019-04-23T22:36:04.613Z,84.10
2019-04-23T22:38:49.510Z,86.20
2019-04-23T22:41:43.373Z,87.80
2019-04-23T22:44:50.958Z,90.80
2019-04-23T22:47:32.406Z,90.70
2019-04-23T22:50:06.139Z,91.80
2019-04-23T22:52:53.678Z,90.90
2019-04-23T22:55:49.673Z,91.30
2019-04-23T22:58:32.482Z,92.60
2019-04-23T23:04:18.053Z,92.40
2019-04-23T23:07:02.933Z,93.30
2019-04-23T23:09:55.787Z,94.80
2019-04-23T23:12:51.335Z,95.20
2019-04-23T23:21:06.143Z,92.80
2019-04-23T23:23:56.494Z,92.70
2019-04-23T23:26:50.281Z,92.20
2019-04-23T23:29:34.635Z,91.90
2019-04-23T23:32:24.440Z,91.50
2019-04-23T23:37:59.104Z,91.10
2019-04-23T23:43:41.467Z,91.90
2019-04-23T23:49:13.589Z,91.80
2019-04-23T23:51:58.291Z,91.70
2019-04-23T23:54:54.336Z,92.10
2019-04-23T23:57:58.030Z,91.80
